createdAt,value
2022-11-24T00:00:45.302Z,92321.78
2022-11-24T00:03:56.606Z,92332.91
2022-11-24T00:07:00.275Z,92336.22
2022-11-24T00:10:04.713Z,92329.50
2022-11-24T00:13:07.710Z,92338.09
2022-11-24T00:16:19.894Z,92339.09
2022-11-24T00:19:23.804Z,92337.00
2022-11-24T00:22:26.856Z,92342.19
2022-11-24T00:25:29.895Z,92344.78
2022-11-24T00:28:34.584Z,92337.34
2022-11-24T00:31:41.210Z,92348.81
2022-11-24T00:34:45.089Z,92357.81
2022-11-24T00:37:48.073Z,92352.81
2022-11-24T00:40:52.836Z,92352.56
2022-11-24T00:43:56.650Z,92358.91
2022-11-24T00:47:00.115Z,92351.44
2022-11-24T00:50:05.009Z,92352.78
2022-11-24T00:53:08.089Z,92358.59
2022-11-24T00:56:11.814Z,92355.63
2022-11-24T00:59:15.858Z,92354.72
2022-11-24T01:02:18.906Z,92358.81
2022-11-24T01:05:22.787Z,92359.75
2022-11-24T01:08:26.369Z,92363.31
2022-11-24T01:11:53.139Z,92367.28
2022-11-24T01:14:57.038Z,92363.81
2022-11-24T01:18:01.178Z,92362.56
2022-11-24T01:21:09.859Z,92360.81
2022-11-24T01:24:15.119Z,92351.13
2022-11-24T01:27:18.826Z,92355.28
2022-11-24T01:30:24.115Z,92356.31
2022-11-24T01:33:27.520Z,92354.91
2022-11-24T01:36:31.683Z,92355.97
2022-11-24T01:39:35.319Z,92360.66
2022-11-24T01:42:52.041Z,92362.47
2022-11-24T01:45:56.558Z,92357.44
2022-11-24T01:49:09.876Z,92351.47
2022-11-24T01:52:20.782Z,92351.97
2022-11-24T01:55:31.995Z,92342.34
2022-11-24T01:58:37.159Z,92348.63
2022-11-24T02:01:41.354Z,92347.19
2022-11-24T02:04:46.367Z,92344.19
2022-11-24T02:07:51.416Z,92340.38
2022-11-24T02:10:55.871Z,92347.63
2022-11-24T02:14:00.122Z,92341.50
2022-11-24T02:17:03.902Z,92344.22
2022-11-24T02:20:10.831Z,92348.31
2022-11-24T02:23:25.358Z,92349.00
2022-11-24T02:26:46.048Z,92351.91
2022-11-24T02:29:50.666Z,92357.78
2022-11-24T02:32:55.336Z,92359.19
2022-11-24T02:35:59.248Z,92361.31
2022-11-24T02:39:03.276Z,92350.94
2022-11-24T02:42:13.662Z,92355.44
2022-11-24T02:45:17.762Z,92353.88
2022-11-24T02:48:21.467Z,92360.13
2022-11-24T02:51:25.589Z,92343.63
2022-11-24T02:54:29.587Z,92347.19
2022-11-24T02:57:35.894Z,92345.53
2022-11-24T03:00:39.652Z,92352.81
2022-11-24T03:03:43.065Z,92351.03
2022-11-24T03:06:46.068Z,92356.25
2022-11-24T03:09:50.206Z,92354.31
2022-11-24T03:12:54.918Z,92361.03
2022-11-24T03:15:59.357Z,92350.50
2022-11-24T03:19:03.085Z,92339.56
2022-11-24T03:22:07.176Z,92338.44
2022-11-24T03:25:10.654Z,92345.44
2022-11-24T03:28:13.980Z,92347.34
2022-11-24T03:31:18.294Z,92342.13
2022-11-24T03:34:22.440Z,92346.75
2022-11-24T03:37:25.490Z,92350.50
2022-11-24T03:40:28.759Z,92346.91
2022-11-24T03:43:32.650Z,92347.31
2022-11-24T03:46:36.442Z,92347.34
2022-11-24T03:49:41.960Z,92343.75
2022-11-24T03:52:46.004Z,92341.00
2022-11-24T03:55:49.670Z,92347.69
2022-11-24T03:58:53.737Z,92347.16
2022-11-24T04:01:57.537Z,92345.53
2022-11-24T04:05:01.584Z,92351.75
2022-11-24T04:08:06.049Z,92349.41
2022-11-24T04:11:30.018Z,92364.81
2022-11-24T04:14:34.067Z,92361.47
2022-11-24T04:17:38.531Z,92362.78
2022-11-24T04:20:43.487Z,92363.41
2022-11-24T04:23:46.999Z,92355.44
2022-11-24T04:26:50.640Z,92354.81
2022-11-24T04:29:54.499Z,92350.91
2022-11-24T04:32:58.187Z,92357.19
2022-11-24T04:36:01.905Z,92350.09
2022-11-24T04:39:25.874Z,92355.38
2022-11-24T04:42:29.148Z,92360.78
2022-11-24T04:45:32.934Z,92352.44
2022-11-24T04:48:37.039Z,92341.47
2022-11-24T04:51:41.034Z,92341.94
2022-11-24T04:54:44.694Z,92345.34
2022-11-24T04:57:48.432Z,92341.50
2022-11-24T05:00:52.476Z,92336.88
2022-11-24T05:03:57.531Z,92336.88
2022-11-24T05:07:01.564Z,92332.44
2022-11-24T05:10:23.477Z,92337.41
2022-11-24T05:13:27.866Z,92326.88
2022-11-24T05:16:31.014Z,92324.66
2022-11-24T05:19:34.386Z,92332.88
2022-11-24T05:22:37.848Z,92340.09
2022-11-24T05:25:47.254Z,92341.41
2022-11-24T05:28:51.012Z,92343.72
2022-11-24T05:31:54.936Z,92335.59
2022-11-24T05:34:58.867Z,92333.63
2022-11-24T05:38:03.002Z,92340.06
2022-11-24T05:41:07.632Z,92342.13
2022-11-24T05:44:11.305Z,92340.69
2022-11-24T05:47:14.786Z,92341.81
2022-11-24T05:50:20.230Z,92341.41
2022-11-24T05:53:24.377Z,92351.91
2022-11-24T05:56:28.072Z,92341.00
2022-11-24T05:59:32.812Z,92347.28
2022-11-24T06:02:37.021Z,92353.28
2022-11-24T06:05:40.855Z,92345.69
2022-11-24T06:08:44.887Z,92350.66
2022-11-24T06:11:49.379Z,92355.38
2022-11-24T06:14:53.779Z,92349.00
2022-11-24T06:17:57.508Z,92353.06
2022-11-24T06:21:12.046Z,92355.53
2022-11-24T06:24:16.142Z,92354.00
2022-11-24T06:27:20.048Z,92359.59
2022-11-24T06:30:23.884Z,92366.13
2022-11-24T06:33:27.374Z,92358.00
2022-11-24T06:36:31.021Z,92365.28
2022-11-24T06:39:34.679Z,92377.97
2022-11-24T06:42:38.792Z,92376.34
2022-11-24T06:45:42.782Z,92369.94
2022-11-24T06:48:46.514Z,92378.94
2022-11-24T06:51:50.170Z,92370.66
2022-11-24T06:54:54.280Z,92385.28
2022-11-24T06:57:58.139Z,92381.72
2022-11-24T07:01:01.789Z,92381.66
2022-11-24T07:04:05.701Z,92385.94
2022-11-24T07:07:09.458Z,92383.13
2022-11-24T07:10:13.697Z,92386.22
2022-11-24T07:13:17.318Z,92382.59
2022-11-24T07:16:26.154Z,92385.06
2022-11-24T07:19:29.501Z,92395.94
2022-11-24T07:22:32.475Z,92396.41
2022-11-24T07:25:35.772Z,92396.06
2022-11-24T07:28:39.015Z,92399.06
2022-11-24T07:31:43.183Z,92404.19
2022-11-24T07:34:46.570Z,92409.59
2022-11-24T07:37:49.509Z,92404.38
2022-11-24T07:40:53.444Z,92402.66
2022-11-24T07:43:57.104Z,92404.44
2022-11-24T07:47:01.048Z,92414.50
2022-11-24T07:50:04.750Z,92410.94
2022-11-24T07:53:08.293Z,92412.47
2022-11-24T07:56:13.126Z,92422.34
2022-11-24T07:59:16.445Z,92421.25
2022-11-24T08:02:20.106Z,92430.28
2022-11-24T08:05:23.973Z,92425.72
2022-11-24T08:08:27.562Z,92427.47
2022-11-24T08:11:32.396Z,92419.84
2022-11-24T08:14:36.247Z,92414.31
2022-11-24T08:17:40.413Z,92434.69
2022-11-24T08:20:43.929Z,92432.72
2022-11-24T08:23:48.058Z,92424.22
2022-11-24T08:26:51.389Z,92430.16
2022-11-24T08:29:55.337Z,92432.88
2022-11-24T08:33:01.930Z,92432.38
2022-11-24T08:36:13.926Z,92435.38
2022-11-24T08:39:16.899Z,92439.63
2022-11-24T08:42:20.422Z,92444.44
2022-11-24T08:45:25.621Z,92448.25
2022-11-24T08:48:29.572Z,92436.94
2022-11-24T08:51:32.533Z,92450.94
2022-11-24T08:54:36.030Z,92456.31
2022-11-24T08:57:39.195Z,92463.19
2022-11-24T09:00:42.746Z,92455.88
2022-11-24T09:03:50.749Z,92460.28
2022-11-24T09:06:55.229Z,92454.34
2022-11-24T09:09:58.852Z,92465.44
2022-11-24T09:13:03.200Z,92477.59
2022-11-24T09:16:13.088Z,92482.09
2022-11-24T09:19:17.087Z,92488.53
2022-11-24T09:22:20.715Z,92485.38
2022-11-24T09:25:26.892Z,92490.44
2022-11-24T09:28:30.104Z,92494.56
2022-11-24T09:31:36.255Z,92491.81
2022-11-24T09:34:39.812Z,92504.66
2022-11-24T09:37:45.680Z,92503.63
2022-11-24T09:40:50.390Z,92515.59
2022-11-24T09:44:06.833Z,92513.69
2022-11-24T09:47:22.410Z,92512.63
2022-11-24T09:50:44.788Z,92523.25
2022-11-24T09:53:55.705Z,92527.69
2022-11-24T09:57:02.477Z,92530.78
2022-11-24T10:00:14.156Z,92534.75
2022-11-24T10:03:24.989Z,92538.22
2022-11-24T10:06:32.026Z,92540.94
2022-11-24T10:10:29.457Z,92539.00
2022-11-24T10:13:35.641Z,92535.91
2022-11-24T10:16:54.723Z,92540.53
2022-11-24T10:20:06.408Z,92537.13
2022-11-24T10:23:28.483Z,92544.22
2022-11-24T10:26:43.653Z,92544.75
2022-11-24T10:29:52.550Z,92547.75
2022-11-24T10:33:08.949Z,92557.88
2022-11-24T10:36:21.279Z,92560.97
2022-11-24T10:39:37.762Z,92563.22
2022-11-24T10:42:40.940Z,92551.88
2022-11-24T10:46:27.774Z,92560.50
2022-11-24T10:49:34.297Z,92561.41
2022-11-24T10:52:48.826Z,92567.28
2022-11-24T10:55:58.670Z,92564.16
2022-11-24T10:59:39.001Z,92572.97
2022-11-24T11:02:42.967Z,92575.91
2022-11-24T11:06:13.511Z,92572.22
2022-11-24T11:09:20.167Z,92586.75
2022-11-24T11:12:43.396Z,92577.63
2022-11-24T11:15:47.294Z,92585.72
2022-11-24T11:18:51.880Z,92583.75
2022-11-24T11:22:13.706Z,92585.44
2022-11-24T11:25:22.042Z,92597.75
2022-11-24T11:28:29.887Z,92596.53
2022-11-24T11:31:35.688Z,92595.66
2022-11-24T11:34:41.290Z,92600.34
2022-11-24T11:37:47.315Z,92604.81
2022-11-24T11:40:53.311Z,92606.03
2022-11-24T11:44:28.302Z,92596.19
2022-11-24T11:48:05.785Z,92600.84
2022-11-24T11:51:23.743Z,92606.75
2022-11-24T11:54:46.553Z,92613.28
2022-11-24T11:58:02.709Z,92605.91
2022-11-24T12:01:43.867Z,92609.34
2022-11-24T12:04:53.419Z,92613.31
2022-11-24T12:08:22.973Z,92614.53
2022-11-24T12:11:39.019Z,92621.22
2022-11-24T12:15:04.581Z,92618.78
2022-11-24T12:22:07.920Z,92638.97
2022-11-24T12:25:22.076Z,92638.78
2022-11-24T12:29:08.260Z,92643.97
2022-11-24T12:33:08.887Z,92651.75
2022-11-24T12:36:46.937Z,92644.81
2022-11-24T12:40:16.865Z,92647.41
2022-11-24T12:43:31.202Z,92655.19
2022-11-24T12:46:57.360Z,92656.91
2022-11-24T12:50:12.525Z,92657.06
2022-11-24T12:53:19.676Z,92668.47
2022-11-24T12:56:58.526Z,92653.28
2022-11-24T13:00:09.076Z,92655.00
2022-11-24T13:03:14.927Z,92658.28
2022-11-24T13:06:49.846Z,92655.19
2022-11-24T13:10:54.158Z,92657.59
2022-11-24T13:14:16.129Z,92659.97
2022-11-24T13:17:50.237Z,92667.41
2022-11-24T13:20:59.627Z,92667.94
2022-11-24T13:24:06.758Z,92667.56
2022-11-24T13:27:16.758Z,92680.84
2022-11-24T13:30:35.423Z,92675.84
2022-11-24T13:33:39.995Z,92673.38
2022-11-24T13:36:54.228Z,92676.88
2022-11-24T13:40:05.826Z,92683.94
2022-11-24T13:43:11.690Z,92676.69
2022-11-24T13:46:14.686Z,92677.38
2022-11-24T13:49:21.557Z,92676.88
2022-11-24T13:52:51.524Z,92682.34
2022-11-24T13:56:12.737Z,92690.03
2022-11-24T13:59:30.305Z,92696.94
2022-11-24T14:02:35.455Z,92696.81
2022-11-24T14:05:40.744Z,92693.19
2022-11-24T14:08:46.560Z,92690.59
2022-11-24T14:12:20.803Z,92687.47
2022-11-24T14:15:35.048Z,92692.16
2022-11-24T14:18:40.323Z,92685.78
2022-11-24T14:21:45.985Z,92692.16
2022-11-24T14:24:57.924Z,92692.16
2022-11-24T14:28:02.369Z,92703.38
2022-11-24T14:31:17.303Z,92702.69
2022-11-24T14:34:22.941Z,92710.56
2022-11-24T14:37:26.707Z,92710.88
2022-11-24T14:40:50.414Z,92712.09
2022-11-24T14:44:14.513Z,92719.16
2022-11-24T14:47:34.811Z,92708.84
2022-11-24T14:50:38.566Z,92709.53
2022-11-24T14:53:44.733Z,92706.44
2022-11-24T14:57:05.887Z,92707.44
2022-11-24T15:00:22.524Z,92720.31
2022-11-24T15:03:25.465Z,92727.66
2022-11-24T15:06:29.405Z,92721.28
2022-11-24T15:09:40.182Z,92718.53
2022-11-24T15:12:58.576Z,92727.66
2022-11-24T15:16:09.677Z,92723.91
2022-11-24T15:19:16.575Z,92724.97
2022-11-24T15:22:38.003Z,92731.81
2022-11-24T15:25:41.667Z,92734.19
2022-11-24T15:28:47.531Z,92735.41
2022-11-24T15:31:53.020Z,92739.94
2022-11-24T15:34:57.207Z,92743.56
2022-11-24T15:38:00.268Z,92738.13
2022-11-24T15:41:03.672Z,92744.16
2022-11-24T15:44:08.504Z,92746.59
2022-11-24T15:47:12.089Z,92753.84
2022-11-24T15:50:16.519Z,92747.06
2022-11-24T15:53:24.793Z,92751.75
2022-11-24T15:56:34.590Z,92762.28
2022-11-24T15:59:39.626Z,92756.75
2022-11-24T16:02:43.418Z,92757.09
2022-11-24T16:05:56.398Z,92759.75
2022-11-24T16:08:59.662Z,92764.91
2022-11-24T16:12:04.655Z,92769.34
2022-11-24T16:15:08.738Z,92775.44
2022-11-24T16:18:14.398Z,92772.06
2022-11-24T16:21:18.474Z,92774.81
2022-11-24T16:24:22.524Z,92769.34
2022-11-24T16:27:26.170Z,92773.84
2022-11-24T16:30:29.909Z,92777.34
2022-11-24T16:33:33.983Z,92780.31
2022-11-24T16:36:37.583Z,92779.47
2022-11-24T16:39:46.987Z,92778.09
2022-11-24T16:42:53.684Z,92786.47
2022-11-24T16:46:18.745Z,92791.16
2022-11-24T16:49:22.528Z,92784.97
2022-11-24T16:52:26.175Z,92780.16
2022-11-24T16:55:29.244Z,92772.25
2022-11-24T16:58:32.621Z,92780.16
2022-11-24T17:01:36.732Z,92783.53
2022-11-24T17:04:40.278Z,92784.91
2022-11-24T17:07:43.335Z,92786.59
2022-11-24T17:10:46.821Z,92783.25
2022-11-24T17:13:50.275Z,92783.88
2022-11-24T17:16:53.902Z,92786.13
2022-11-24T17:19:57.572Z,92785.13
2022-11-24T17:23:01.534Z,92783.63
2022-11-24T17:26:07.541Z,92795.09
2022-11-24T17:29:11.503Z,92794.72
2022-11-24T17:32:15.239Z,92805.09
2022-11-24T17:35:18.615Z,92796.00
2022-11-24T17:38:22.368Z,92789.97
2022-11-24T17:41:26.469Z,92787.03
2022-11-24T17:44:30.122Z,92786.84
2022-11-24T17:47:34.251Z,92794.94
2022-11-24T17:50:37.859Z,92784.25
2022-11-24T17:53:43.213Z,92793.25
2022-11-24T17:56:48.942Z,92799.81
2022-11-24T17:59:54.009Z,92791.22
2022-11-24T18:02:58.248Z,92787.78
2022-11-24T18:06:09.816Z,92785.72
2022-11-24T18:09:13.210Z,92790.13
2022-11-24T18:12:16.533Z,92797.19
2022-11-24T18:15:20.190Z,92806.47
2022-11-24T18:18:23.586Z,92804.47
2022-11-24T18:21:27.200Z,92808.56
2022-11-24T18:24:31.205Z,92800.69
2022-11-24T18:27:34.963Z,92814.47
2022-11-24T18:30:38.795Z,92812.06
2022-11-24T18:33:44.062Z,92812.59
2022-11-24T18:36:53.140Z,92815.59
2022-11-24T18:39:56.497Z,92814.28
2022-11-24T18:43:00.512Z,92812.94
2022-11-24T18:46:22.340Z,92821.41
2022-11-24T18:49:26.230Z,92808.13
2022-11-24T18:52:29.490Z,92811.06
2022-11-24T18:55:34.054Z,92817.81
2022-11-24T18:58:37.736Z,92816.44
2022-11-24T19:01:41.103Z,92813.16
2022-11-24T19:04:45.029Z,92812.66
2022-11-24T19:07:48.415Z,92819.03
2022-11-24T19:10:52.634Z,92812.50
2022-11-24T19:13:56.996Z,92811.44
2022-11-24T19:17:03.011Z,92808.88
2022-11-24T19:20:06.724Z,92813.34
2022-11-24T19:23:10.066Z,92810.75
2022-11-24T19:26:13.696Z,92804.22
2022-11-24T19:29:17.306Z,92797.47
2022-11-24T19:32:21.050Z,92804.22
2022-11-24T19:35:24.628Z,92795.59
2022-11-24T19:38:30.081Z,92806.66
2022-11-24T19:41:34.054Z,92817.13
2022-11-24T19:44:37.703Z,92807.16
2022-11-24T19:47:41.040Z,92802.00
2022-11-24T19:50:44.050Z,92801.69
2022-11-24T19:53:48.066Z,92796.03
2022-11-24T19:56:50.928Z,92798.56
2022-11-24T19:59:54.908Z,92804.28
2022-11-24T20:02:59.364Z,92792.06
2022-11-24T20:06:02.950Z,92797.53
2022-11-24T20:09:09.006Z,92789.31
2022-11-24T20:12:11.953Z,92793.63
2022-11-24T20:15:15.361Z,92790.75
2022-11-24T20:18:18.963Z,92789.56
2022-11-24T20:21:33.759Z,92795.63
2022-11-24T20:24:37.569Z,92806.66
2022-11-24T20:27:41.696Z,92804.25
2022-11-24T20:30:44.620Z,92793.75
2022-11-24T20:33:48.582Z,92802.75
2022-11-24T20:36:53.406Z,92806.25
2022-11-24T20:39:58.858Z,92812.34
2022-11-24T20:43:01.776Z,92810.00
2022-11-24T20:46:10.931Z,92805.34
2022-11-24T20:49:20.305Z,92806.16
2022-11-24T20:52:23.256Z,92806.44
2022-11-24T20:55:26.308Z,92796.47
2022-11-24T20:58:29.734Z,92804.09
2022-11-24T21:01:44.227Z,92798.50
2022-11-24T21:04:47.758Z,92815.06
2022-11-24T21:07:50.729Z,92812.09
2022-11-24T21:10:55.569Z,92814.00
2022-11-24T21:13:59.796Z,92813.81
2022-11-24T21:17:03.810Z,92813.53
2022-11-24T21:20:08.468Z,92819.91
2022-11-24T21:23:13.001Z,92809.69
2022-11-24T21:26:17.938Z,92820.91
2022-11-24T21:29:23.930Z,92820.75
2022-11-24T21:32:28.730Z,92816.81
2022-11-24T21:35:35.895Z,92824.41
2022-11-24T21:38:40.221Z,92827.50
2022-11-24T21:41:43.710Z,92831.28
2022-11-24T21:44:47.645Z,92829.16
2022-11-24T21:47:51.207Z,92835.03
2022-11-24T21:50:54.783Z,92844.34
2022-11-24T21:53:57.854Z,92841.25
2022-11-24T21:57:02.231Z,92837.16
2022-11-24T22:00:07.431Z,92842.84
2022-11-24T22:03:11.133Z,92839.59
2022-11-24T22:06:14.815Z,92841.16
2022-11-24T22:09:18.777Z,92844.22
2022-11-24T22:12:22.413Z,92853.16
2022-11-24T22:15:26.434Z,92854.88
2022-11-24T22:18:32.849Z,92849.44
2022-11-24T22:21:36.581Z,92853.66
2022-11-24T22:24:40.429Z,92862.63
2022-11-24T22:27:44.680Z,92867.78
2022-11-24T22:30:48.439Z,92872.91
2022-11-24T22:33:53.134Z,92873.47
2022-11-24T22:36:56.873Z,92875.78
2022-11-24T22:40:00.930Z,92881.16
2022-11-24T22:43:04.645Z,92886.69
2022-11-24T22:46:14.432Z,92869.97
2022-11-24T22:49:17.730Z,92878.75
2022-11-24T22:52:21.584Z,92880.50
2022-11-24T22:55:25.133Z,92881.59
2022-11-24T22:58:28.754Z,92878.47
2022-11-24T23:01:34.167Z,92882.94
2022-11-24T23:04:38.300Z,92882.66
2022-11-24T23:07:41.865Z,92884.25
2022-11-24T23:10:45.932Z,92884.47
2022-11-24T23:13:53.936Z,92893.22
2022-11-24T23:16:58.093Z,92902.50
2022-11-24T23:20:01.719Z,92897.38
2022-11-24T23:23:05.703Z,92898.94
2022-11-24T23:26:17.460Z,92909.97
2022-11-24T23:29:21.503Z,92919.59
2022-11-24T23:32:25.186Z,92919.44
2022-11-24T23:35:29.138Z,92913.88
2022-11-24T23:38:34.997Z,92919.97
2022-11-24T23:41:38.993Z,92932.41
2022-11-24T23:44:42.760Z,92928.63
2022-11-24T23:47:46.457Z,92939.28
2022-11-24T23:50:50.158Z,92946.66
2022-11-24T23:53:54.751Z,92946.50
2022-11-24T23:56:58.500Z,92946.09
